sensor_id;sensor_type;location;lat;lon;timestamp;P1;durP1;ratioP1;P2;durP2;ratioP2
21697;SDS011;11010;49.548;11.926;2022-08-19T00:02:17;13.77;;;7.72;;
21697;SDS011;11010;49.548;11.926;2022-08-19T00:04:44;12.02;;;7.35;;
21697;SDS011;11010;49.548;11.926;2022-08-19T00:07:14;12.93;;;7.70;;
21697;SDS011;11010;49.548;11.926;2022-08-19T00:09:41;12.25;;;7.40;;
21697;SDS011;11010;49.548;11.926;2022-08-19T00:12:09;12.65;;;7.40;;
21697;SDS011;11010;49.548;11.926;2022-08-19T00:14:37;13.98;;;7.40;;
21697;SDS011;11010;49.548;11.926;2022-08-19T00:17:05;12.23;;;7.30;;
21697;SDS011;11010;49.548;11.926;2022-08-19T00:19:33;12.40;;;6.53;;
21697;SDS011;11010;49.548;11.926;2022-08-19T00:22:00;13.63;;;7.20;;
21697;SDS011;11010;49.548;11.926;2022-08-19T00:24:29;12.57;;;7.43;;
21697;SDS011;11010;49.548;11.926;2022-08-19T00:26:56;12.63;;;6.90;;
21697;SDS011;11010;49.548;11.926;2022-08-19T00:29:44;12.90;;;7.30;;
21697;SDS011;11010;49.548;11.926;2022-08-19T00:32:17;12.32;;;7.20;;
21697;SDS011;11010;49.548;11.926;2022-08-19T00:34:45;12.68;;;7.43;;
21697;SDS011;11010;49.548;11.926;2022-08-19T00:37:12;14.20;;;8.30;;
21697;SDS011;11010;49.548;11.926;2022-08-19T00:39:40;14.07;;;8.35;;
21697;SDS011;11010;49.548;11.926;2022-08-19T00:42:07;15.45;;;8.68;;
21697;SDS011;11010;49.548;11.926;2022-08-19T00:44:35;13.38;;;7.38;;
21697;SDS011;11010;49.548;11.926;2022-08-19T00:47:02;15.40;;;8.10;;
21697;SDS011;11010;49.548;11.926;2022-08-19T00:50:00;14.57;;;7.43;;
21697;SDS011;11010;49.548;11.926;2022-08-19T00:52:31;13.80;;;8.88;;
21697;SDS011;11010;49.548;11.926;2022-08-19T00:55:00;14.07;;;8.38;;
21697;SDS011;11010;49.548;11.926;2022-08-19T00:57:35;14.35;;;8.88;;
21697;SDS011;11010;49.548;11.926;2022-08-19T01:00:06;15.68;;;8.07;;
21697;SDS011;11010;49.548;11.926;2022-08-19T01:02:36;14.68;;;8.40;;
21697;SDS011;11010;49.548;11.926;2022-08-19T01:05:05;14.63;;;8.35;;
21697;SDS011;11010;49.548;11.926;2022-08-19T01:07:34;18.92;;;7.65;;
21697;SDS011;11010;49.548;11.926;2022-08-19T01:10:04;13.05;;;7.57;;
21697;SDS011;11010;49.548;11.926;2022-08-19T01:12:33;13.65;;;7.57;;
21697;SDS011;11010;49.548;11.926;2022-08-19T01:15:00;12.18;;;7.15;;
21697;SDS011;11010;49.548;11.926;2022-08-19T01:17:28;12.50;;;7.00;;
21697;SDS011;11010;49.548;11.926;2022-08-19T01:19:55;14.07;;;7.82;;
21697;SDS011;11010;49.548;11.926;2022-08-19T01:24:58;12.43;;;7.47;;
21697;SDS011;11010;49.548;11.926;2022-08-19T01:27:25;16.73;;;7.85;;
21697;SDS011;11010;49.548;11.926;2022-08-19T01:30:09;14.82;;;7.47;;
21697;SDS011;11010;49.548;11.926;2022-08-19T01:32:36;13.68;;;7.70;;
21697;SDS011;11010;49.548;11.926;2022-08-19T01:35:04;13.93;;;7.97;;
21697;SDS011;11010;49.548;11.926;2022-08-19T01:37:41;14.45;;;8.40;;
21697;SDS011;11010;49.548;11.926;2022-08-19T01:40:09;13.63;;;7.70;;
21697;SDS011;11010;49.548;11.926;2022-08-19T01:42:37;12.27;;;7.28;;
21697;SDS011;11010;49.548;11.926;2022-08-19T01:45:05;14.25;;;8.30;;
21697;SDS011;11010;49.548;11.926;2022-08-19T01:47:34;13.10;;;7.78;;
21697;SDS011;11010;49.548;11.926;2022-08-19T01:50:04;15.05;;;8.57;;
21697;SDS011;11010;49.548;11.926;2022-08-19T01:52:34;12.45;;;7.38;;
21697;SDS011;11010;49.548;11.926;2022-08-19T01:55:02;14.00;;;8.43;;
21697;SDS011;11010;49.548;11.926;2022-08-19T01:57:29;13.77;;;7.88;;
21697;SDS011;11010;49.548;11.926;2022-08-19T01:59:57;14.05;;;8.02;;
21697;SDS011;11010;49.548;11.926;2022-08-19T02:02:25;14.05;;;8.45;;
21697;SDS011;11010;49.548;11.926;2022-08-19T02:04:53;13.77;;;8.02;;
21697;SDS011;11010;49.548;11.926;2022-08-19T02:07:20;13.93;;;8.23;;
21697;SDS011;11010;49.548;11.926;2022-08-19T02:09:48;14.55;;;7.93;;
21697;SDS011;11010;49.548;11.926;2022-08-19T02:12:15;16.15;;;8.27;;
21697;SDS011;11010;49.548;11.926;2022-08-19T02:14:43;13.38;;;7.88;;
21697;SDS011;11010;49.548;11.926;2022-08-19T02:17:10;14.13;;;7.95;;
21697;SDS011;11010;49.548;11.926;2022-08-19T02:19:38;14.25;;;8.13;;
21697;SDS011;11010;49.548;11.926;2022-08-19T02:22:06;13.27;;;7.82;;
21697;SDS011;11010;49.548;11.926;2022-08-19T02:24:34;13.75;;;7.47;;
21697;SDS011;11010;49.548;11.926;2022-08-19T02:27:02;15.75;;;8.70;;
21697;SDS011;11010;49.548;11.926;2022-08-19T02:29:29;14.65;;;8.65;;
21697;SDS011;11010;49.548;11.926;2022-08-19T02:31:57;14.50;;;8.63;;
21697;SDS011;11010;49.548;11.926;2022-08-19T02:34:24;13.63;;;8.25;;
21697;SDS011;11010;49.548;11.926;2022-08-19T02:36:52;14.93;;;8.85;;
21697;SDS011;11010;49.548;11.926;2022-08-19T02:39:19;13.38;;;7.88;;
21697;SDS011;11010;49.548;11.926;2022-08-19T02:41:47;16.48;;;8.93;;
21697;SDS011;11010;49.548;11.926;2022-08-19T02:44:16;14.50;;;8.25;;
21697;SDS011;11010;49.548;11.926;2022-08-19T02:46:56;14.02;;;7.95;;
21697;SDS011;11010;49.548;11.926;2022-08-19T02:49:24;14.85;;;8.27;;
21697;SDS011;11010;49.548;11.926;2022-08-19T02:51:51;15.02;;;8.23;;
21697;SDS011;11010;49.548;11.926;2022-08-19T02:54:19;13.43;;;7.80;;
21697;SDS011;11010;49.548;11.926;2022-08-19T02:56:47;14.05;;;8.25;;
21697;SDS011;11010;49.548;11.926;2022-08-19T02:59:15;12.68;;;7.13;;
21697;SDS011;11010;49.548;11.926;2022-08-19T03:01:46;14.25;;;8.32;;
21697;SDS011;11010;49.548;11.926;2022-08-19T03:04:14;16.05;;;8.38;;
21697;SDS011;11010;49.548;11.926;2022-08-19T03:06:44;14.43;;;7.97;;
21697;SDS011;11010;49.548;11.926;2022-08-19T03:09:12;15.00;;;9.38;;
21697;SDS011;11010;49.548;11.926;2022-08-19T03:11:40;13.10;;;7.80;;
21697;SDS011;11010;49.548;11.926;2022-08-19T03:14:08;15.10;;;8.65;;
21697;SDS011;11010;49.548;11.926;2022-08-19T03:16:43;13.10;;;8.07;;
21697;SDS011;11010;49.548;11.926;2022-08-19T03:19:12;16.48;;;10.15;;
21697;SDS011;11010;49.548;11.926;2022-08-19T03:21:40;14.57;;;8.15;;
21697;SDS011;11010;49.548;11.926;2022-08-19T03:24:07;13.88;;;8.35;;
21697;SDS011;11010;49.548;11.926;2022-08-19T03:26:39;14.65;;;8.52;;
21697;SDS011;11010;49.548;11.926;2022-08-19T03:29:07;14.10;;;7.63;;
21697;SDS011;11010;49.548;11.926;2022-08-19T03:31:38;13.00;;;7.40;;
21697;SDS011;11010;49.548;11.926;2022-08-19T03:34:23;12.45;;;6.60;;
21697;SDS011;11010;49.548;11.926;2022-08-19T03:36:54;14.05;;;7.45;;
21697;SDS011;11010;49.548;11.926;2022-08-19T03:39:23;13.90;;;7.50;;
21697;SDS011;11010;49.548;11.926;2022-08-19T03:41:51;13.73;;;7.68;;
21697;SDS011;11010;49.548;11.926;2022-08-19T03:44:39;12.00;;;6.60;;
21697;SDS011;11010;49.548;11.926;2022-08-19T03:47:08;13.05;;;6.57;;
21697;SDS011;11010;49.548;11.926;2022-08-19T03:49:38;12.13;;;6.93;;
21697;SDS011;11010;49.548;11.926;2022-08-19T03:52:06;12.43;;;7.13;;
21697;SDS011;11010;49.548;11.926;2022-08-19T03:54:34;14.10;;;7.95;;
21697;SDS011;11010;49.548;11.926;2022-08-19T03:57:02;15.00;;;7.97;;
21697;SDS011;11010;49.548;11.926;2022-08-19T03:59:31;14.25;;;6.95;;
21697;SDS011;11010;49.548;11.926;2022-08-19T04:02:00;14.02;;;8.13;;
21697;SDS011;11010;49.548;11.926;2022-08-19T04:04:28;16.42;;;9.18;;
21697;SDS011;11010;49.548;11.926;2022-08-19T04:06:57;13.32;;;7.75;;
21697;SDS011;11010;49.548;11.926;2022-08-19T04:09:25;14.05;;;8.35;;
21697;SDS011;11010;49.548;11.926;2022-08-19T04:11:54;13.55;;;7.47;;
21697;SDS011;11010;49.548;11.926;2022-08-19T04:14:23;14.30;;;8.13;;
21697;SDS011;11010;49.548;11.926;2022-08-19T04:16:51;16.15;;;9.27;;
21697;SDS011;11010;49.548;11.926;2022-08-19T04:19:19;15.25;;;9.15;;
21697;SDS011;11010;49.548;11.926;2022-08-19T04:21:48;15.90;;;9.63;;
21697;SDS011;11010;49.548;11.926;2022-08-19T04:24:16;15.52;;;9.25;;
21697;SDS011;11010;49.548;11.926;2022-08-19T04:26:44;15.40;;;9.27;;
21697;SDS011;11010;49.548;11.926;2022-08-19T04:29:14;14.68;;;8.77;;
21697;SDS011;11010;49.548;11.926;2022-08-19T04:31:42;15.32;;;8.15;;
21697;SDS011;11010;49.548;11.926;2022-08-19T04:34:12;12.13;;;7.28;;
21697;SDS011;11010;49.548;11.926;2022-08-19T04:36:40;14.68;;;8.80;;
21697;SDS011;11010;49.548;11.926;2022-08-19T04:39:11;14.07;;;7.97;;
21697;SDS011;11010;49.548;11.926;2022-08-19T04:41:39;15.70;;;8.52;;
21697;SDS011;11010;49.548;11.926;2022-08-19T04:44:26;14.90;;;8.63;;
21697;SDS011;11010;49.548;11.926;2022-08-19T04:46:58;15.90;;;9.63;;
21697;SDS011;11010;49.548;11.926;2022-08-19T04:49:27;16.20;;;8.85;;
21697;SDS011;11010;49.548;11.926;2022-08-19T04:51:55;14.07;;;8.07;;
21697;SDS011;11010;49.548;11.926;2022-08-19T04:54:23;16.08;;;9.85;;
21697;SDS011;11010;49.548;11.926;2022-08-19T04:57:07;14.68;;;8.95;;
21697;SDS011;11010;49.548;11.926;2022-08-19T04:59:37;14.55;;;8.68;;
21697;SDS011;11010;49.548;11.926;2022-08-19T05:02:06;15.75;;;9.38;;
21697;SDS011;11010;49.548;11.926;2022-08-19T05:04:34;16.02;;;9.90;;
21697;SDS011;11010;49.548;11.926;2022-08-19T05:07:05;15.20;;;9.00;;
21697;SDS011;11010;49.548;11.926;2022-08-19T05:09:33;15.30;;;8.73;;
21697;SDS011;11010;49.548;11.926;2022-08-19T05:12:21;15.95;;;9.02;;
21697;SDS011;11010;49.548;11.926;2022-08-19T05:14:54;15.15;;;8.98;;
21697;SDS011;11010;49.548;11.926;2022-08-19T05:17:24;14.40;;;8.60;;
21697;SDS011;11010;49.548;11.926;2022-08-19T05:19:54;14.35;;;8.73;;
21697;SDS011;11010;49.548;11.926;2022-08-19T05:22:41;15.95;;;9.55;;
21697;SDS011;11010;49.548;11.926;2022-08-19T05:25:10;15.55;;;9.20;;
21697;SDS011;11010;49.548;11.926;2022-08-19T05:27:39;18.23;;;9.90;;
21697;SDS011;11010;49.548;11.926;2022-08-19T05:30:08;13.40;;;7.97;;
21697;SDS011;11010;49.548;11.926;2022-08-19T05:32:35;14.30;;;8.68;;
21697;SDS011;11010;49.548;11.926;2022-08-19T05:35:04;14.50;;;8.30;;
21697;SDS011;11010;49.548;11.926;2022-08-19T05:37:32;15.00;;;9.52;;
21697;SDS011;11010;49.548;11.926;2022-08-19T05:40:00;16.35;;;9.45;;
21697;SDS011;11010;49.548;11.926;2022-08-19T05:42:28;15.95;;;9.43;;
21697;SDS011;11010;49.548;11.926;2022-08-19T05:44:57;17.52;;;10.35;;
21697;SDS011;11010;49.548;11.926;2022-08-19T05:47:24;16.50;;;10.00;;
21697;SDS011;11010;49.548;11.926;2022-08-19T05:49:52;17.42;;;11.00;;
21697;SDS011;11010;49.548;11.926;2022-08-19T05:52:19;16.58;;;10.20;;
21697;SDS011;11010;49.548;11.926;2022-08-19T05:54:52;17.98;;;10.43;;
21697;SDS011;11010;49.548;11.926;2022-08-19T05:57:22;16.42;;;9.80;;
21697;SDS011;11010;49.548;11.926;2022-08-19T05:59:50;17.40;;;10.35;;
21697;SDS011;11010;49.548;11.926;2022-08-19T06:02:24;16.52;;;9.65;;
21697;SDS011;11010;49.548;11.926;2022-08-19T06:04:52;16.70;;;9.85;;
21697;SDS011;11010;49.548;11.926;2022-08-19T06:07:19;17.88;;;10.23;;
21697;SDS011;11010;49.548;11.926;2022-08-19T06:09:47;17.65;;;10.65;;
21697;SDS011;11010;49.548;11.926;2022-08-19T06:12:29;16.33;;;9.50;;
21697;SDS011;11010;49.548;11.926;2022-08-19T06:14:59;17.00;;;10.00;;
21697;SDS011;11010;49.548;11.926;2022-08-19T06:17:28;16.98;;;9.70;;
21697;SDS011;11010;49.548;11.926;2022-08-19T06:19:57;16.92;;;10.15;;
21697;SDS011;11010;49.548;11.926;2022-08-19T06:22:25;16.08;;;9.07;;
21697;SDS011;11010;49.548;11.926;2022-08-19T06:24:53;15.95;;;9.18;;
21697;SDS011;11010;49.548;11.926;2022-08-19T06:27:22;17.75;;;9.75;;
21697;SDS011;11010;49.548;11.926;2022-08-19T06:29:49;15.77;;;9.75;;
21697;SDS011;11010;49.548;11.926;2022-08-19T06:32:17;16.98;;;9.88;;
21697;SDS011;11010;49.548;11.926;2022-08-19T06:34:48;17.05;;;9.70;;
21697;SDS011;11010;49.548;11.926;2022-08-19T06:37:15;16.92;;;9.27;;
21697;SDS011;11010;49.548;11.926;2022-08-19T06:39:43;14.88;;;8.95;;
21697;SDS011;11010;49.548;11.926;2022-08-19T06:42:11;15.80;;;9.15;;
21697;SDS011;11010;49.548;11.926;2022-08-19T06:44:44;14.10;;;7.60;;
21697;SDS011;11010;49.548;11.926;2022-08-19T06:47:18;11.55;;;6.43;;
21697;SDS011;11010;49.548;11.926;2022-08-19T06:49:57;13.82;;;5.90;;
21697;SDS011;11010;49.548;11.926;2022-08-19T06:52:31;11.75;;;6.28;;
21697;SDS011;11010;49.548;11.926;2022-08-19T06:55:03;11.20;;;5.53;;
21697;SDS011;11010;49.548;11.926;2022-08-19T06:57:32;10.93;;;5.40;;
21697;SDS011;11010;49.548;11.926;2022-08-19T07:00:00;10.65;;;5.43;;
21697;SDS011;11010;49.548;11.926;2022-08-19T07:02:28;11.40;;;5.38;;
21697;SDS011;11010;49.548;11.926;2022-08-19T07:04:55;9.77;;;4.78;;
21697;SDS011;11010;49.548;11.926;2022-08-19T07:07:32;10.68;;;5.22;;
21697;SDS011;11010;49.548;11.926;2022-08-19T07:10:00;10.48;;;5.63;;
21697;SDS011;11010;49.548;11.926;2022-08-19T07:12:31;12.27;;;5.60;;
21697;SDS011;11010;49.548;11.926;2022-08-19T07:15:04;9.85;;;4.97;;
21697;SDS011;11010;49.548;11.926;2022-08-19T07:17:32;11.00;;;5.68;;
21697;SDS011;11010;49.548;11.926;2022-08-19T07:20:01;11.95;;;5.68;;
21697;SDS011;11010;49.548;11.926;2022-08-19T07:22:34;10.65;;;5.60;;
21697;SDS011;11010;49.548;11.926;2022-08-19T07:25:03;10.93;;;5.72;;
21697;SDS011;11010;49.548;11.926;2022-08-19T07:27:30;10.57;;;5.40;;
21697;SDS011;11010;49.548;11.926;2022-08-19T07:29:59;11.07;;;6.00;;
21697;SDS011;11010;49.548;11.926;2022-08-19T07:32:27;11.20;;;5.80;;
21697;SDS011;11010;49.548;11.926;2022-08-19T07:34:54;10.98;;;5.80;;
21697;SDS011;11010;49.548;11.926;2022-08-19T07:37:23;12.63;;;6.72;;
21697;SDS011;11010;49.548;11.926;2022-08-19T07:39:59;11.82;;;6.00;;
21697;SDS011;11010;49.548;11.926;2022-08-19T07:42:26;13.73;;;7.18;;
21697;SDS011;11010;49.548;11.926;2022-08-19T07:44:56;10.98;;;6.25;;
21697;SDS011;11010;49.548;11.926;2022-08-19T07:47:25;15.75;;;9.55;;
21697;SDS011;11010;49.548;11.926;2022-08-19T07:50:14;16.08;;;8.95;;
21697;SDS011;11010;49.548;11.926;2022-08-19T07:52:42;14.02;;;8.10;;
21697;SDS011;11010;49.548;11.926;2022-08-19T07:55:14;14.20;;;8.05;;
21697;SDS011;11010;49.548;11.926;2022-08-19T07:58:02;14.35;;;7.93;;
21697;SDS011;11010;49.548;11.926;2022-08-19T08:00:31;13.80;;;8.20;;
21697;SDS011;11010;49.548;11.926;2022-08-19T08:02:59;12.90;;;7.15;;
21697;SDS011;11010;49.548;11.926;2022-08-19T08:05:26;14.43;;;8.30;;
21697;SDS011;11010;49.548;11.926;2022-08-19T08:08:12;14.18;;;7.75;;
21697;SDS011;11010;49.548;11.926;2022-08-19T08:10:59;12.60;;;7.13;;
21697;SDS011;11010;49.548;11.926;2022-08-19T08:13:32;15.95;;;8.85;;
21697;SDS011;11010;49.548;11.926;2022-08-19T08:16:04;13.57;;;7.80;;
21697;SDS011;11010;49.548;11.926;2022-08-19T08:18:39;15.70;;;8.43;;
21697;SDS011;11010;49.548;11.926;2022-08-19T08:21:16;13.15;;;7.55;;
21697;SDS011;11010;49.548;11.926;2022-08-19T08:23:43;13.43;;;7.60;;
21697;SDS011;11010;49.548;11.926;2022-08-19T08:26:11;14.98;;;8.60;;
21697;SDS011;11010;49.548;11.926;2022-08-19T08:28:41;13.35;;;7.70;;
21697;SDS011;11010;49.548;11.926;2022-08-19T08:31:14;15.90;;;8.00;;
21697;SDS011;11010;49.548;11.926;2022-08-19T08:33:42;16.55;;;9.38;;
21697;SDS011;11010;49.548;11.926;2022-08-19T08:36:10;15.90;;;9.10;;
21697;SDS011;11010;49.548;11.926;2022-08-19T08:38:37;15.05;;;8.63;;
21697;SDS011;11010;49.548;11.926;2022-08-19T08:41:26;14.55;;;8.48;;
21697;SDS011;11010;49.548;11.926;2022-08-19T08:43:55;14.50;;;8.05;;
21697;SDS011;11010;49.548;11.926;2022-08-19T08:46:34;14.13;;;7.88;;
21697;SDS011;11010;49.548;11.926;2022-08-19T08:49:20;14.25;;;8.15;;
21697;SDS011;11010;49.548;11.926;2022-08-19T08:51:51;14.35;;;8.40;;
21697;SDS011;11010;49.548;11.926;2022-08-19T08:54:28;13.35;;;7.97;;
21697;SDS011;11010;49.548;11.926;2022-08-19T08:57:00;14.13;;;7.88;;
21697;SDS011;11010;49.548;11.926;2022-08-19T08:59:30;14.77;;;7.68;;
21697;SDS011;11010;49.548;11.926;2022-08-19T09:01:59;14.10;;;7.88;;
21697;SDS011;11010;49.548;11.926;2022-08-19T09:04:27;12.73;;;6.82;;
21697;SDS011;11010;49.548;11.926;2022-08-19T09:09:50;13.63;;;7.47;;
21697;SDS011;11010;49.548;11.926;2022-08-19T09:14:57;13.18;;;7.43;;
21697;SDS011;11010;49.548;11.926;2022-08-19T09:17:27;13.80;;;7.32;;
21697;SDS011;11010;49.548;11.926;2022-08-19T09:19:59;14.18;;;8.07;;
21697;SDS011;11010;49.548;11.926;2022-08-19T09:22:38;13.65;;;7.60;;
21697;SDS011;11010;49.548;11.926;2022-08-19T09:25:07;14.25;;;7.50;;
21697;SDS011;11010;49.548;11.926;2022-08-19T09:27:35;13.27;;;7.65;;
21697;SDS011;11010;49.548;11.926;2022-08-19T09:30:17;15.32;;;7.45;;
21697;SDS011;11010;49.548;11.926;2022-08-19T09:32:45;13.50;;;7.55;;
21697;SDS011;11010;49.548;11.926;2022-08-19T09:35:18;12.27;;;7.28;;
21697;SDS011;11010;49.548;11.926;2022-08-19T09:37:49;13.68;;;7.00;;
21697;SDS011;11010;49.548;11.926;2022-08-19T09:40:23;12.38;;;6.40;;
21697;SDS011;11010;49.548;11.926;2022-08-19T09:42:52;12.38;;;6.60;;
21697;SDS011;11010;49.548;11.926;2022-08-19T09:45:20;13.10;;;6.82;;
21697;SDS011;11010;49.548;11.926;2022-08-19T09:47:49;12.68;;;6.20;;
21697;SDS011;11010;49.548;11.926;2022-08-19T09:50:20;12.93;;;6.85;;
21697;SDS011;11010;49.548;11.926;2022-08-19T09:52:48;12.93;;;6.70;;
21697;SDS011;11010;49.548;11.926;2022-08-19T09:55:23;12.95;;;7.03;;
21697;SDS011;11010;49.548;11.926;2022-08-19T09:57:59;12.77;;;6.93;;
21697;SDS011;11010;49.548;11.926;2022-08-19T10:00:26;12.80;;;6.90;;
21697;SDS011;11010;49.548;11.926;2022-08-19T10:02:54;15.10;;;7.82;;
21697;SDS011;11010;49.548;11.926;2022-08-19T10:05:22;13.23;;;7.22;;
21697;SDS011;11010;49.548;11.926;2022-08-19T10:08:08;12.55;;;6.88;;
21697;SDS011;11010;49.548;11.926;2022-08-19T10:10:42;14.95;;;7.40;;
21697;SDS011;11010;49.548;11.926;2022-08-19T10:13:13;12.13;;;6.95;;
21697;SDS011;11010;49.548;11.926;2022-08-19T10:15:41;12.77;;;7.22;;
21697;SDS011;11010;49.548;11.926;2022-08-19T10:18:14;11.52;;;6.13;;
21697;SDS011;11010;49.548;11.926;2022-08-19T10:20:48;14.82;;;6.20;;
21697;SDS011;11010;49.548;11.926;2022-08-19T10:23:18;12.30;;;6.57;;
21697;SDS011;11010;49.548;11.926;2022-08-19T10:25:46;13.40;;;7.18;;
21697;SDS011;11010;49.548;11.926;2022-08-19T10:28:14;11.65;;;6.15;;
21697;SDS011;11010;49.548;11.926;2022-08-19T10:30:44;12.50;;;6.72;;
21697;SDS011;11010;49.548;11.926;2022-08-19T10:33:12;12.15;;;6.47;;
21697;SDS011;11010;49.548;11.926;2022-08-19T10:36:02;12.90;;;6.70;;
21697;SDS011;11010;49.548;11.926;2022-08-19T10:38:30;14.13;;;6.63;;
21697;SDS011;11010;49.548;11.926;2022-08-19T10:41:05;12.40;;;6.57;;
21697;SDS011;11010;49.548;11.926;2022-08-19T10:43:33;12.57;;;6.70;;
21697;SDS011;11010;49.548;11.926;2022-08-19T10:46:06;12.38;;;6.45;;
21697;SDS011;11010;49.548;11.926;2022-08-19T10:48:42;11.90;;;6.15;;
21697;SDS011;11010;49.548;11.926;2022-08-19T10:51:10;11.77;;;6.28;;
21697;SDS011;11010;49.548;11.926;2022-08-19T10:53:57;11.85;;;6.70;;
21697;SDS011;11010;49.548;11.926;2022-08-19T10:56:25;11.90;;;5.90;;
21697;SDS011;11010;49.548;11.926;2022-08-19T10:59:12;13.60;;;6.40;;
21697;SDS011;11010;49.548;11.926;2022-08-19T11:01:41;11.52;;;6.05;;
21697;SDS011;11010;49.548;11.926;2022-08-19T11:04:08;11.63;;;6.07;;
21697;SDS011;11010;49.548;11.926;2022-08-19T11:06:40;12.07;;;6.05;;
21697;SDS011;11010;49.548;11.926;2022-08-19T11:09:09;12.40;;;6.68;;
21697;SDS011;11010;49.548;11.926;2022-08-19T11:11:38;12.15;;;6.35;;
21697;SDS011;11010;49.548;11.926;2022-08-19T11:14:12;11.23;;;6.28;;
21697;SDS011;11010;49.548;11.926;2022-08-19T11:16:40;12.43;;;6.35;;
21697;SDS011;11010;49.548;11.926;2022-08-19T11:19:09;13.18;;;7.28;;
21697;SDS011;11010;49.548;11.926;2022-08-19T11:21:38;13.07;;;6.80;;
21697;SDS011;11010;49.548;11.926;2022-08-19T11:24:07;13.85;;;7.32;;
21697;SDS011;11010;49.548;11.926;2022-08-19T11:26:35;12.40;;;6.55;;
21697;SDS011;11010;49.548;11.926;2022-08-19T11:29:04;13.35;;;6.22;;
21697;SDS011;11010;49.548;11.926;2022-08-19T11:31:33;11.82;;;6.43;;
21697;SDS011;11010;49.548;11.926;2022-08-19T11:34:03;11.50;;;6.22;;
21697;SDS011;11010;49.548;11.926;2022-08-19T11:36:31;12.18;;;6.78;;
21697;SDS011;11010;49.548;11.926;2022-08-19T11:39:00;12.25;;;6.80;;
21697;SDS011;11010;49.548;11.926;2022-08-19T11:41:27;14.27;;;6.88;;
21697;SDS011;11010;49.548;11.926;2022-08-19T11:43:55;14.13;;;6.60;;
21697;SDS011;11010;49.548;11.926;2022-08-19T11:46:24;12.65;;;6.93;;
21697;SDS011;11010;49.548;11.926;2022-08-19T11:48:52;16.20;;;8.13;;
21697;SDS011;11010;49.548;11.926;2022-08-19T11:51:21;13.32;;;6.90;;
21697;SDS011;11010;49.548;11.926;2022-08-19T11:53:51;14.70;;;6.97;;
21697;SDS011;11010;49.548;11.926;2022-08-19T11:56:19;12.90;;;6.88;;
21697;SDS011;11010;49.548;11.926;2022-08-19T11:58:47;11.95;;;6.25;;
21697;SDS011;11010;49.548;11.926;2022-08-19T12:01:16;13.02;;;6.43;;
21697;SDS011;11010;49.548;11.926;2022-08-19T12:03:44;12.75;;;6.70;;
21697;SDS011;11010;49.548;11.926;2022-08-19T12:06:13;11.95;;;6.75;;
21697;SDS011;11010;49.548;11.926;2022-08-19T12:08:42;12.05;;;6.63;;
21697;SDS011;11010;49.548;11.926;2022-08-19T12:11:10;12.15;;;6.47;;
21697;SDS011;11010;49.548;11.926;2022-08-19T12:13:38;12.48;;;6.78;;
21697;SDS011;11010;49.548;11.926;2022-08-19T12:16:07;11.95;;;6.50;;
21697;SDS011;11010;49.548;11.926;2022-08-19T12:18:37;13.25;;;7.53;;
21697;SDS011;11010;49.548;11.926;2022-08-19T12:21:07;13.02;;;6.95;;
21697;SDS011;11010;49.548;11.926;2022-08-19T12:23:37;12.15;;;6.72;;
21697;SDS011;11010;49.548;11.926;2022-08-19T12:26:05;12.30;;;6.75;;
21697;SDS011;11010;49.548;11.926;2022-08-19T12:28:32;13.02;;;7.53;;
21697;SDS011;11010;49.548;11.926;2022-08-19T12:31:00;12.05;;;6.95;;
21697;SDS011;11010;49.548;11.926;2022-08-19T12:33:27;12.65;;;7.30;;
21697;SDS011;11010;49.548;11.926;2022-08-19T12:35:55;12.75;;;6.97;;
21697;SDS011;11010;49.548;11.926;2022-08-19T12:38:27;12.57;;;7.00;;
21697;SDS011;11010;49.548;11.926;2022-08-19T12:40:55;13.57;;;7.25;;
21697;SDS011;11010;49.548;11.926;2022-08-19T12:43:26;14.20;;;7.25;;
21697;SDS011;11010;49.548;11.926;2022-08-19T12:45:55;13.80;;;6.88;;
21697;SDS011;11010;49.548;11.926;2022-08-19T12:48:23;13.35;;;7.78;;
21697;SDS011;11010;49.548;11.926;2022-08-19T12:51:00;14.10;;;6.80;;
21697;SDS011;11010;49.548;11.926;2022-08-19T12:53:29;13.68;;;7.68;;
21697;SDS011;11010;49.548;11.926;2022-08-19T12:55:57;13.73;;;7.15;;
21697;SDS011;11010;49.548;11.926;2022-08-19T12:58:26;16.17;;;8.07;;
21697;SDS011;11010;49.548;11.926;2022-08-19T13:00:55;12.55;;;7.05;;
21697;SDS011;11010;49.548;11.926;2022-08-19T13:03:22;13.10;;;7.03;;
21697;SDS011;11010;49.548;11.926;2022-08-19T13:05:55;13.48;;;7.35;;
21697;SDS011;11010;49.548;11.926;2022-08-19T13:08:23;15.02;;;7.53;;
21697;SDS011;11010;49.548;11.926;2022-08-19T13:10:50;13.40;;;7.65;;
21697;SDS011;11010;49.548;11.926;2022-08-19T13:13:18;13.07;;;7.15;;
21697;SDS011;11010;49.548;11.926;2022-08-19T13:15:45;12.88;;;6.95;;
21697;SDS011;11010;49.548;11.926;2022-08-19T13:18:13;12.57;;;6.47;;
21697;SDS011;11010;49.548;11.926;2022-08-19T13:20:41;12.93;;;6.90;;
21697;SDS011;11010;49.548;11.926;2022-08-19T13:23:18;12.80;;;6.90;;
21697;SDS011;11010;49.548;11.926;2022-08-19T13:25:54;12.32;;;6.65;;
21697;SDS011;11010;49.548;11.926;2022-08-19T13:28:22;11.70;;;6.13;;
21697;SDS011;11010;49.548;11.926;2022-08-19T13:30:54;11.18;;;5.78;;
21697;SDS011;11010;49.548;11.926;2022-08-19T13:33:41;11.45;;;5.97;;
21697;SDS011;11010;49.548;11.926;2022-08-19T13:36:08;13.10;;;6.20;;
21697;SDS011;11010;49.548;11.926;2022-08-19T13:38:36;12.52;;;6.68;;
21697;SDS011;11010;49.548;11.926;2022-08-19T13:41:04;11.85;;;6.05;;
21697;SDS011;11010;49.548;11.926;2022-08-19T13:43:38;12.18;;;6.13;;
21697;SDS011;11010;49.548;11.926;2022-08-19T13:46:08;10.80;;;5.47;;
21697;SDS011;11010;49.548;11.926;2022-08-19T13:48:36;11.77;;;5.90;;
21697;SDS011;11010;49.548;11.926;2022-08-19T13:51:04;11.70;;;5.88;;
21697;SDS011;11010;49.548;11.926;2022-08-19T13:53:32;11.80;;;5.95;;
21697;SDS011;11010;49.548;11.926;2022-08-19T13:55:59;10.55;;;5.40;;
21697;SDS011;11010;49.548;11.926;2022-08-19T13:58:27;11.02;;;5.45;;
21697;SDS011;11010;49.548;11.926;2022-08-19T14:00:54;10.75;;;5.90;;
21697;SDS011;11010;49.548;11.926;2022-08-19T14:03:22;10.45;;;5.43;;
21697;SDS011;11010;49.548;11.926;2022-08-19T14:05:50;10.93;;;5.70;;
21697;SDS011;11010;49.548;11.926;2022-08-19T14:08:17;11.50;;;5.82;;
21697;SDS011;11010;49.548;11.926;2022-08-19T14:10:45;11.45;;;5.72;;
21697;SDS011;11010;49.548;11.926;2022-08-19T14:13:14;12.63;;;5.75;;
21697;SDS011;11010;49.548;11.926;2022-08-19T14:15:42;11.23;;;5.70;;
21697;SDS011;11010;49.548;11.926;2022-08-19T14:18:09;12.30;;;5.97;;
21697;SDS011;11010;49.548;11.926;2022-08-19T14:20:37;11.93;;;6.03;;
21697;SDS011;11010;49.548;11.926;2022-08-19T14:23:05;11.43;;;6.03;;
21697;SDS011;11010;49.548;11.926;2022-08-19T14:25:32;13.20;;;6.55;;
21697;SDS011;11010;49.548;11.926;2022-08-19T14:28:00;13.68;;;7.05;;
21697;SDS011;11010;49.548;11.926;2022-08-19T14:30:29;14.07;;;7.50;;
21697;SDS011;11010;49.548;11.926;2022-08-19T14:32:58;13.65;;;7.55;;
21697;SDS011;11010;49.548;11.926;2022-08-19T14:35:26;15.40;;;7.75;;
21697;SDS011;11010;49.548;11.926;2022-08-19T14:37:54;14.55;;;7.05;;
21697;SDS011;11010;49.548;11.926;2022-08-19T14:40:23;13.57;;;6.55;;
21697;SDS011;11010;49.548;11.926;2022-08-19T14:43:02;12.82;;;6.75;;
21697;SDS011;11010;49.548;11.926;2022-08-19T14:45:34;12.73;;;6.53;;
21697;SDS011;11010;49.548;11.926;2022-08-19T14:48:03;13.52;;;7.35;;